Home > Products > Valid Products > TAF

000
FTUS43 KLMK 270500
TAFSDF
TAF
KSDF 270520Z 2706/2812 VRB03KT 5SM -SN OVC015
      TEMPO 2707/2709 3SM -SN BKN008
     FM271000 36004KT P6SM OVC015
     FM271300 01005KT P6SM OVC024
     FM271700 35007KT P6SM BKN035
     FM272200 01004KT P6SM SKC=



000
FTUS43 KLMK 270500
TAFLEX
TAF
KLEX 270520Z 2706/2806 VRB03KT 6SM -SN OVC021
     FM271100 03003KT P6SM OVC015
     FM271400 36007KT P6SM BKN040
     FM272200 36005KT P6SM SKC=



000
FTUS43 KLMK 270500
TAFBWG
TAF
KBWG 270520Z 2706/2806 VRB03KT 5SM -SN OVC025
     FM270800 VRB03KT 2SM -SN OVC007
     FM271100 34004KT P6SM OVC012
     FM271600 34006KT P6SM OVC022
     FM280000 36003KT P6SM SCT030=



000
FTUS43 KLMK 270300 AAA
TAFBWG
TAF AMD
KBWG 270347Z 2704/2724 VRB03KT P6SM OVC025
     FM270600 VRB03KT 3SM -SN BKN009
     FM271500 35005KT P6SM BKN015=



000
FTUS43 KLMK 270300 AAA
TAFBWG
TAF AMD
KBWG 270347Z 2704/2724 VRB03KT P6SM OVC025
     FM270600 VRB03KT 3SM -SN BKN009
     FM271500 35005KT P6SM BKN015=



000
FTUS43 KLMK 262300
TAFBWG
TAF
KBWG 262325Z 2700/2724 27005KT 5SM -SHSN OVC016
      TEMPO 2700/2702 2SM -SN SCT016 OVC025
     FM270600 VRB03KT 3SM -SN BKN009
     FM271500 35005KT P6SM BKN015=



000
FTUS43 KLMK 262300
TAFSDF
TAF
KSDF 262325Z 2700/2806 28005KT P6SM BKN022
     FM270600 VRB03KT 5SM -SN BKN009 OVC015
     FM271200 36005KT P6SM BKN015 OVC025
     FM271700 36007KT P6SM SCT025 BKN070=



000
FTUS43 KLMK 262300
TAFLEX
TAF
KLEX 262325Z 2700/2724 31006KT P6SM OVC022
     FM270800 VRB04KT 5SM -SN BKN015
     FM271300 01005KT P6SM BKN015
     FM271700 35008KT P6SM BKN035=



000
FTUS43 KLMK 261700
TAFBWG
TAF
KBWG 261738Z 2618/2718 32010KT P6SM OVC016
      TEMPO 2622/2702 BKN025
     FM270300 VRB03KT 5SM -SHSN BKN018
     FM270600 VRB03KT 3SM -SN BKN009
     FM271500 35005KT P6SM BKN025=



000
FTUS43 KLMK 261700
TAFLEX
TAF
KLEX 261738Z 2618/2718 30010KT P6SM OVC015
     FM262000 31006KT P6SM SCT025 BKN050
     FM270100 VRB04KT P6SM BKN025 BKN050
     FM270800 VRB04KT P6SM -SN BKN025
     FM271500 35008KT P6SM BKN035=



000
FTUS43 KLMK 261700
TAFSDF
TAF
KSDF 261738Z 2618/2724 30009KT P6SM BKN022 BKN060
     FM262300 28005KT P6SM BKN017
     FM270500 VRB03KT 5SM -SN BKN009
     FM271100 36005KT P6SM SCT015 BKN025
     FM271500 36005KT P6SM FEW025 FEW070=



000
FTUS43 KLMK 261100
TAFSDF
TAF
KSDF 261139Z 2612/2718 33012G18KT P6SM OVC016
     FM261500 31011KT P6SM BKN019
     FM261800 31009KT P6SM BKN022 BKN060
     FM262000 30006KT P6SM SCT025 BKN050
     FM270500 VRB03KT 4SM -SN BKN018
     FM271300 36006KT P6SM BKN050=



000
FTUS43 KLMK 261100
TAFBWG
TAF
KBWG 261139Z 2612/2712 32012G18KT P6SM OVC012
     FM261500 31010KT P6SM BKN015
     FM262200 VRB04KT P6SM SCT020 BKN050
     FM270300 VRB04KT 4SM -SN BKN018
      TEMPO 2706/2710 2SM -SN BKN009=



000
FTUS43 KLMK 261100
TAFLEX
TAF
KLEX 261139Z 2612/2712 33015G20KT P6SM OVC014
     FM261700 31010KT P6SM BKN019
     FM262000 31008KT P6SM BKN025 BKN050
     FM262300 VRB04KT P6SM SCT025 BKN050
     FM270800 VRB04KT 6SM -SN BKN035=



000
FTUS43 KLMK 260600 AAA
TAFLEX
TAF AMD
KLEX 260644Z 2607/2706 VRB06KT 3SM BR BKN009 OVC012
      TEMPO 2607/2608 1SM BR BKN004
     FM260800 33013G20KT 4SM -RASN BR BKN008
     FM261100 33010G17KT 6SM BR BKN012
     FM261700 31010KT P6SM BKN020
     FM262200 VRB04KT P6SM SCT025 BKN050=



000
FTUS43 KLMK 260500
TAFLEX
TAF
KLEX 260537Z 2606/2706 VRB06KT 6SM -SHRA BR BKN009 OVC012
      TEMPO 2606/2608 SCT009 OVC012
     FM260800 33013G20KT 4SM -RASN BR BKN008
     FM261100 33010G17KT 6SM BR BKN012
     FM261700 31010KT P6SM BKN020
     FM262200 VRB04KT P6SM SCT025 BKN050=



000
FTUS43 KLMK 260500
TAFSDF
TAF
KSDF 260537Z 2606/2712 34014G21KT 5SM -RASN BR BKN012
      TEMPO 2606/2607 4SM -SN BR BKN009
     FM260700 33012G18KT 6SM BR BKN012
     FM261500 31010KT P6SM BKN015
     FM261800 31009KT P6SM BKN025 BKN060
     FM262100 30006KT P6SM SCT025 BKN050=



000
FTUS43 KLMK 260500
TAFBWG
TAF
KBWG 260537Z 2606/2706 29009KT 6SM -RA BR BKN008
     FM260700 31013G20KT 6SM -RASN BR BKN012
     FM261000 31012KT 6SM BR BKN015
     FM261500 31010KT P6SM BKN015
     FM262300 VRB04KT P6SM SCT020 BKN050=



000
FTUS43 KLMK 260300 AAA
TAFLEX
TAF AMD
KLEX 260343Z 2604/2624 VRB06KT 4SM -SHRA BR OVC018
      TEMPO 2604/2608 3SM -SHRA BR BKN008
     FM260800 33013G20KT 3SM -SN BKN008
     FM261300 33010G17KT 6SM BR BKN008
     FM261700 31010KT P6SM BKN012
     FM262200 30007KT P6SM BKN022=



000
FTUS43 KLMK 260300 AAB
TAFSDF
TAF AMD
KSDF 260341Z 2604/2706 35008KT 4SM -RA BR BKN006
     FM260600 33014G21KT 3SM -SN BR BKN009
     FM261000 33012G18KT 6SM BR BKN009
     FM261500 30010KT P6SM BKN015
     FM262200 30006KT P6SM SCT025 BKN060=



000
FTUS43 KLMK 260300 AAA
TAFSDF
TAF AMD
KSDF 260301Z 2603/2706 35008KT 4SM -RA BR SCT012 BKN022
      TEMPO 2605/2606 3SM -RASN BR BKN012
     FM260600 33014G21KT 3SM -SN BR BKN009
     FM261000 33012G18KT 6SM BR BKN009
     FM261500 30010KT P6SM BKN015
     FM262200 30006KT P6SM SCT025 BKN060=



000
FTUS43 KLMK 252300
TAFBWG
TAF
KBWG 252320Z 2600/2624 26008KT 4SM -SHRA BR FEW009 SCT013 BKN040
      TEMPO 2600/2603 2SM -SHRA BR SCT009 BKN013
     FM260300 29009KT 3SM -RA BR BKN008
     FM260700 32012G18KT 5SM -RASN BR BKN008
     FM261200 31010KT 6SM BR BKN008
     FM261500 31010KT P6SM BKN012
     FM262100 29006KT P6SM SCT020 BKN050=



000
FTUS43 KLMK 252300
TAFSDF
TAF
KSDF 252320Z 2600/2706 VRB03KT 6SM -RA BR SCT012 BKN040
      TEMPO 2600/2602 3SM -RA BR BKN012
     FM260200 34007KT 3SM -RA BR SCT009 BKN012
     FM260600 33014G21KT 3SM -SN BR BKN009
     FM261000 33012G18KT 6SM BR BKN009
     FM261500 30010KT P6SM BKN015
     FM262200 30006KT P6SM SCT025 BKN060=



000
FTUS43 KLMK 252300
TAFLEX
TAF
KLEX 252320Z 2600/2624 VRB05KT 6SM -SHRA BR SCT025 BKN040
      TEMPO 2601/2604 4SM -SHRA BR SCT009 BKN025
     FM260400 VRB06KT 4SM -SHRA BR BKN008
     FM260800 33013G20KT 3SM -SN BKN008
     FM261300 33010G17KT 6SM BR BKN008
     FM261700 31010KT P6SM BKN012
     FM262200 30007KT P6SM BKN022=



000
FTUS43 KLMK 252300 AAA
TAFLEX
TAF AMD
KLEX 252311Z 2523/2618 VRB05KT 6SM -SHRA BR SCT025 BKN040
      TEMPO 2601/2604 4SM -SHRA BR SCT009 BKN025
     FM260400 VRB06KT 4SM -SHRA BR BKN008
     FM260800 33013G20KT 3SM -SN BKN008
     FM261300 33010G17KT 6SM BR BKN008
     FM261700 31010KT P6SM BKN012=



000
FTUS43 KLMK 252300 AAB
TAFSDF
TAF AMD
KSDF 252304Z 2523/2624 VRB03KT 6SM -RA BR SCT012 BKN040
      TEMPO 2600/2602 3SM -RA BR BKN012
     FM260200 34007KT 3SM -RA BR SCT009 BKN012
     FM260600 33014G21KT 3SM -SN BR BKN009
     FM261000 33012G18KT P6SM BKN009
     FM261500 30010KT P6SM BKN015=



000
FTUS43 KLMK 252000 AAA
TAFBWG
TAF AMD
KBWG 252017Z 2520/2618 VRB06KT P6SM BKN040
     FM260000 24006KT 4SM -SHRA BR BKN009
     FM260700 33012G18KT 5SM BR VCSH BKN012 OVC018
     FM261200 31010KT P6SM BKN015=



000
FTUS43 KLMK 252000 AAA
TAFSDF
TAF AMD
KSDF 252016Z 2520/2624 VRB06KT P6SM -RA BKN040
     FM252200 VRB06KT 3SM SHRA BR BKN009
     FM260600 33014G21KT 4SM -SN BKN015
     FM260900 33012G18KT P6SM BKN018=



000
FTUS43 KLMK 251700
TAFLEX
TAF
KLEX 251726Z 2518/2618 18011G16KT P6SM BKN080
     FM252000 19009KT P6SM VCSH BKN050
     FM252300 18007KT 5SM -SHRA BR BKN025
     FM260100 VRB06KT 4SM -SHRA BR BKN008
     FM260900 33013G20KT 4SM -SN BKN011 OVC018
     FM261200 33010G17KT P6SM BKN018=



000
FTUS43 KLMK 251700
TAFBWG
TAF
KBWG 251726Z 2518/2618 21011G16KT P6SM BKN080
     FM252000 22008KT 5SM -SHRA BR BKN018
     FM260000 24006KT 4SM -SHRA BR BKN009
     FM260700 33012G18KT 5SM BR VCSH BKN012 OVC018
     FM261200 31010KT P6SM BKN015=



000
FTUS43 KLMK 251700
TAFSDF
TAF
KSDF 251726Z 2518/2624 18009KT P6SM -RA BKN050
     FM252000 19007KT 5SM -SHRA BR BKN022
     FM252200 VRB06KT 3SM SHRA BR BKN009
     FM260600 33014G21KT 4SM -SN BKN015
     FM260900 33012G18KT P6SM BKN018=



000
FTUS43 KLMK 251100
TAFLEX
TAF
KLEX 251121Z 2512/2612 19008KT P6SM BKN150
     FM252000 19012KT P6SM VCSH BKN050
     FM252200 18007KT 5SM -SHRA BR BKN025
     FM260100 VRB06KT 4SM -SHRA BR BKN008
     FM260800 34013G20KT 4SM -RASN BKN012
     FM261100 34010G17KT P6SM BKN018=



000
FTUS43 KLMK 251100
TAFBWG
TAF
KBWG 251121Z 2512/2612 18006KT P6SM FEW010 BKN150
     FM251600 19010G15KT P6SM BKN080
     FM252000 21012KT 5SM -SHRA BR BKN018
     FM260000 24009KT 4SM -SHRA BR BKN009
     FM260700 33012G18KT 5SM BR BKN015=



000
FTUS43 KLMK 251100
TAFSDF
TAF
KSDF 251121Z 2512/2618 18006KT P6SM BKN120
     FM251800 18009KT P6SM VCSH BKN050
     FM252000 19008KT 5SM -SHRA BR BKN025
     FM252300 VRB06KT 4SM -SHRA BR BKN009
     FM260600 34014G21KT 4SM -RASN BKN015
     FM260900 33012G18KT P6SM BKN018=



000
FTUS43 KLMK 250500
TAFSDF
TAF
KSDF 250532Z 2506/2612 17005KT P6SM BKN150
     FM250800 19005KT 6SM BR BKN120
     FM251700 18009KT 6SM BR VCSH BKN050
     FM252000 19006KT 4SM -SHRA BR BKN015
     FM252300 VRB06KT 4SM -SHRA BR BKN009
     FM260500 34013G20KT 4SM -RASN BKN015=



000
FTUS43 KLMK 250500
TAFLEX
TAF
KLEX 250532Z 2506/2606 19007KT 6SM BR SCT150
     FM251200 19008KT P6SM BKN150
     FM252000 19012KT 6SM BR VCSH BKN050
     FM252200 18007KT 4SM -SHRA BR BKN012
     FM260100 VRB06KT 4SM -SHRA BR BKN008=



000
FTUS43 KLMK 250500
TAFBWG
TAF
KBWG 250532Z 2506/2606 22004KT P6SM FEW200
     FM250900 19005KT 6SM BR FEW010 BKN150
     FM251600 19010G15KT P6SM BKN080
     FM252000 21012KT 5SM -SHRA BR BKN012
     FM260000 24009KT 4SM -SHRA BR BKN009=



000
FTUS43 KLMK 242300
TAFBWG
TAF
KBWG 242326Z 2500/2524 22004KT P6SM FEW200
     FM250900 19006KT 6SM BR FEW010 BKN150
     FM251500 19010KT P6SM FEW015 BKN080
     FM252000 21008KT 6SM BR VCSH BKN012=



000
FTUS43 KLMK 242300
TAFSDF
TAF
KSDF 242326Z 2500/2606 23005KT P6SM FEW060 FEW150
     FM250800 19004KT 6SM BR FEW010 SCT060 BKN120
     FM251600 18007KT 6SM BR VCSH SCT020 BKN050
     FM252100 VRB06KT 2SM -SHRA BR BKN008=



000
FTUS43 KLMK 242300
TAFLEX
TAF
KLEX 242326Z 2500/2524 22006KT P6SM FEW030 SCT250
     FM251200 19008KT P6SM SCT010 BKN070
     FM252000 18008KT 6SM BR VCSH SCT020 BKN040
     FM252200 18007KT 3SM -SHRA BR BKN012=



000
FTUS43 KLMK 242300 AAB
TAFLEX
TAF AMD
KLEX 242300Z 2423/2518 23009KT P6SM FEW030
     FM250000 22006KT P6SM FEW020 SCT250
     FM251200 18006KT P6SM SCT010 BKN070=



000
FTUS43 KLMK 242100 AAA
TAFBWG
TAF AMD
KBWG 242128Z 2421/2518 24010KT P6SM SKC
     FM250000 23004KT P6SM FEW200
     FM250900 19005KT 6SM BR FEW010 BKN150
     FM251500 19010KT P6SM FEW015 BKN080=



000
FTUS43 KLMK 242100 AAA
TAFLEX
TAF AMD
KLEX 242126Z 2421/2518 24011KT P6SM BKN025
      TEMPO 2423/2424 SCT025 BKN250
     FM250000 22006KT P6SM FEW020 SCT250
     FM251200 18006KT P6SM SCT010 BKN070=



000
FTUS43 KLMK 242100 AAC
TAFSDF
TAF AMD
KSDF 242123Z 2421/2524 28011KT P6SM FEW030
     FM242300 23005KT P6SM FEW030 FEW250
     FM250800 18004KT 6SM BR FEW010 BKN130
     FM251600 18008KT P6SM -SHRA SCT015 BKN040=



000
FTUS43 KLMK 242000 AAB
TAFSDF
TAF AMD
KSDF 242029Z 2420/2524 25011G16KT 6SM HZ FEW030
     FM242300 21005KT P6SM FEW030 FEW250
     FM250800 18004KT 6SM BR FEW010 BKN130
     FM251600 18008KT P6SM -SHRA SCT015 BKN040=



000
FTUS43 KLMK 241800 AAA
TAFSDF
TAF AMD
KSDF 241854Z 2419/2524 24011G16KT 6SM HZ FEW020 BKN028
     FM242300 21005KT P6SM FEW030 FEW250
     FM250800 18004KT 6SM BR FEW010 BKN130
     FM251600 18008KT P6SM -SHRA SCT015 BKN040=



000
FTUS43 KLMK 241700
TAFLEX
TAF
KLEX 241729Z 2418/2518 23012G17KT P6SM SCT012
     FM250000 20005KT P6SM FEW010 FEW250
     FM251200 18006KT P6SM SCT010 BKN070=



000
FTUS43 KLMK 241700
TAFBWG
TAF
KBWG 241729Z 2418/2518 23010KT 6SM HZ SKC
     FM242300 22004KT P6SM FEW200
     FM250900 19005KT 6SM BR FEW010 BKN150
     FM251500 19010KT P6SM FEW015 BKN080=



000
FTUS43 KLMK 241700
TAFSDF
TAF
KSDF 241729Z 2418/2524 24011G16KT 6SM HZ SCT030
     FM242300 21005KT P6SM FEW030 FEW250
     FM250800 18004KT 6SM BR FEW010 BKN130
     FM251600 18008KT P6SM -SHRA SCT015 BKN040=



000
FTUS43 KLMK 241300 AAA
TAFSDF
TAF AMD
KSDF 241315Z 2413/2518 23005KT P6SM BKN150
      TEMPO 2413/2415 4SM BR
     FM241500 24011G16KT P6SM SCT040
     FM242300 23006KT P6SM BKN150
     FM250900 18004KT P6SM SCT010 BKN150=



000
FTUS43 KLMK 241100
TAFBWG
TAF
KBWG 241140Z 2412/2512 VRB04KT 4SM BR FEW250
      TEMPO 2412/2414 2SM BR
     FM241400 24010KT P6SM FEW250
     FM242300 21004KT P6SM SCT200
     FM250900 19006KT P6SM SCT010 BKN200=



000
FTUS43 KLMK 241100
TAFLEX
TAF
KLEX 241140Z 2412/2512 30007KT 6SM BR BKN009
      TEMPO 2412/2414 SCT009 BKN020
     FM241400 24011G16KT P6SM SCT015 SCT050
     FM242300 25005KT P6SM BKN150
     FM250900 18005KT P6SM SCT010 BKN150=



000
FTUS43 KLMK 241100
TAFSDF
TAF
KSDF 241140Z 2412/2518 29008KT P6SM FEW250
     FM241500 24011G16KT P6SM SCT040
     FM242300 23006KT P6SM BKN150
     FM250900 18004KT P6SM SCT010 BKN150=



000
FTUS43 KLMK 241000 AAA
TAFBWG
TAF AMD
KBWG 241013Z 2410/2506 VRB04KT 4SM BR SCT020
     FM241400 24010G15KT P6SM FEW020=



    US Dept of Commerce
    National Oceanic and Atmospheric Administration
    National Weather Service
    1325 East West Highway
    Silver Spring, MD 20910
    Page Author: NWS Internet Services Team
Disclaimer
Information Quality
Credits
Glossary
Privacy Policy
Freedom of Information Act (FOIA)
About Us
Career Opportunities